Time;durP1;ratioP1;P1;durP2;ratioP2;P2;SDS_P1;SDS_P2;PMS_P1;PMS_P2;Temp;Humidity;BMP_temperature;BMP_pressure;BME280_temperature;BME280_humidity;BME280_pressure;Samples;Min_cycle;Max_cycle;Signal;HPM_P1;HPM_P2
2023/11/01 00:01:52;;;;;;;1999.90;999.90;;;10.90;99.90;;;;;;5042949;28;20029;-70
2023/11/01 00:04:18;;;;;;;1999.90;999.90;;;10.90;99.90;;;;;;5053538;28;20033;-70
2023/11/01 00:06:44;;;;;;;1999.90;999.90;;;11.00;99.90;;;;;;5050361;28;20037;-70
2023/11/01 00:09:10;;;;;;;1999.90;999.90;;;11.00;99.90;;;;;;5045734;28;20415;-70
2023/11/01 00:11:35;;;;;;;1999.90;999.90;;;11.00;99.90;;;;;;5052962;28;20465;-70
2023/11/01 00:14:02;;;;;;;1999.90;999.90;;;11.10;99.90;;;;;;5054484;28;20025;-70
2023/11/01 00:16:28;;;;;;;;;;;11.10;99.90;;;;;;5053810;28;20315;-71
2023/11/01 00:18:54;;;;;;;1999.90;999.90;;;11.20;99.90;;;;;;5053938;28;19909;-70
2023/11/01 00:21:20;;;;;;;1999.90;999.90;;;11.20;99.90;;;;;;5048447;28;20056;-70
2023/11/01 00:23:46;;;;;;;1999.90;999.90;;;11.20;99.90;;;;;;5052491;28;20041;-70
2023/11/01 00:26:12;;;;;;;1999.90;999.90;;;11.20;99.90;;;;;;5052710;28;20346;-70
2023/11/01 00:28:38;;;;;;;1999.90;999.90;;;11.30;99.90;;;;;;5048788;28;20113;-70
2023/11/01 00:31:04;;;;;;;1999.90;999.90;;;11.20;99.90;;;;;;5047659;28;20044;-70
2023/11/01 00:33:30;;;;;;;1999.90;999.90;;;11.20;99.90;;;;;;5051486;28;20471;-82
2023/11/01 00:35:55;;;;;;;1999.90;999.90;;;11.30;99.90;;;;;;5052645;28;20025;-70
2023/11/01 00:38:21;;;;;;;1999.90;999.90;;;11.30;99.90;;;;;;5052410;28;20323;-70
2023/11/01 00:40:47;;;;;;;1999.90;999.90;;;11.30;99.90;;;;;;5051934;28;20419;-70
2023/11/01 00:43:13;;;;;;;1999.90;999.90;;;11.30;99.90;;;;;;5051985;28;20045;-84
2023/11/01 00:45:39;;;;;;;1999.90;999.90;;;11.40;99.90;;;;;;5053319;28;20033;-70
2023/11/01 00:48:05;;;;;;;1999.90;999.90;;;11.30;99.90;;;;;;5048297;28;20070;-70
2023/11/01 00:50:31;;;;;;;1999.90;999.90;;;11.40;99.90;;;;;;5041671;28;20432;-70
2023/11/01 00:52:57;;;;;;;1999.90;999.90;;;11.40;99.90;;;;;;5047416;28;20045;-70
2023/11/01 00:55:23;;;;;;;1999.90;999.90;;;11.40;99.90;;;;;;5051677;28;20048;-70
2023/11/01 00:57:49;;;;;;;1999.90;999.90;;;11.40;99.90;;;;;;5049358;28;20442;-70
2023/11/01 01:00:15;;;;;;;1999.90;999.90;;;11.40;99.90;;;;;;5047855;28;20141;-73
2023/11/01 01:02:42;;;;;;;1999.90;999.90;;;11.40;99.90;;;;;;5041209;28;20029;-70
2023/11/01 01:05:08;;;;;;;1999.90;999.90;;;11.40;99.90;;;;;;5045006;28;20025;-75
2023/11/01 01:07:34;;;;;;;1999.90;999.90;;;11.50;99.90;;;;;;5047636;28;20017;-70
2023/11/01 01:09:59;;;;;;;1999.90;999.90;;;11.40;99.90;;;;;;5043875;28;20039;-71
2023/11/01 01:12:25;;;;;;;1999.90;999.90;;;11.50;99.90;;;;;;5033394;28;20022;-70
2023/11/01 01:14:51;;;;;;;1999.90;999.90;;;11.50;99.90;;;;;;5034299;28;20024;-70
2023/11/01 01:17:16;;;;;;;1999.90;999.90;;;11.50;99.90;;;;;;5042010;28;20017;-71
2023/11/01 01:19:42;;;;;;;1999.90;999.90;;;11.50;99.90;;;;;;5038935;28;20416;-70
2023/11/01 01:22:08;;;;;;;1999.90;999.90;;;11.60;99.90;;;;;;5040992;28;20320;-70
2023/11/01 01:24:33;;;;;;;1999.90;999.90;;;11.60;99.90;;;;;;5033368;28;20022;-70
2023/11/01 01:26:59;;;;;;;1999.90;999.90;;;11.60;99.90;;;;;;5033521;28;20090;-71
2023/11/01 01:29:25;;;;;;;1999.90;999.90;;;11.60;99.90;;;;;;5036748;28;20040;-71
2023/11/01 01:31:50;;;;;;;1999.90;999.90;;;11.60;99.90;;;;;;5034175;28;20029;-70
2023/11/01 01:34:16;;;;;;;1999.90;999.90;;;11.60;99.90;;;;;;5037809;28;20412;-70
2023/11/01 01:36:42;;;;;;;1999.90;999.90;;;11.60;99.90;;;;;;5039217;28;20037;-70
2023/11/01 01:39:07;;;;;;;1999.90;999.90;;;11.60;99.90;;;;;;5042038;28;20416;-71
2023/11/01 01:41:33;;;;;;;1999.90;999.90;;;11.60;99.90;;;;;;5038689;28;20025;-70
2023/11/01 01:43:59;;;;;;;1999.90;999.90;;;11.70;99.90;;;;;;5045916;28;20033;-71
2023/11/01 01:46:28;;;;;;;1999.90;999.90;;;11.70;99.90;;;;;;5055921;28;20423;-70
2023/11/01 01:48:54;;;;;;;1999.90;999.90;;;11.70;99.90;;;;;;5055746;28;20078;-70
2023/11/01 01:51:20;;;;;;;1999.90;999.90;;;11.70;99.90;;;;;;5055239;28;20045;-70
2023/11/01 01:53:46;;;;;;;1999.90;999.90;;;11.70;99.90;;;;;;5053348;28;20379;-71
2023/11/01 01:56:13;;;;;;;;;;;11.70;99.90;;;;;;5052957;28;20036;-70
2023/11/01 01:58:41;;;;;;;1999.90;999.90;;;11.70;99.90;;;;;;5053303;28;20003;-70
2023/11/01 02:01:07;;;;;;;1999.90;999.90;;;11.70;99.90;;;;;;5051930;28;20037;-71
2023/11/01 02:03:34;;;;;;;1999.90;999.90;;;11.70;99.90;;;;;;5043916;28;20017;-70
2023/11/01 02:06:02;;;;;;;1999.90;999.90;;;11.70;99.90;;;;;;5049817;28;20029;-71
2023/11/01 02:08:29;;;;;;;1999.90;999.90;;;11.70;99.90;;;;;;5055430;28;20017;-70
2023/11/01 02:10:55;;;;;;;1999.90;999.90;;;11.80;99.90;;;;;;5056277;28;20033;-71
2023/11/01 02:13:21;;;;;;;1999.90;999.90;;;11.70;99.90;;;;;;5055999;28;20036;-70
2023/11/01 02:15:47;;;;;;;1999.90;999.90;;;11.70;99.90;;;;;;5047634;28;20324;-70
2023/11/01 02:18:13;;;;;;;1999.90;999.90;;;11.70;99.90;;;;;;5054772;28;20100;-71
2023/11/01 02:20:42;;;;;;;1999.90;999.90;;;11.70;99.90;;;;;;5049341;28;20047;-70
2023/11/01 02:23:15;;;;;;;1999.90;999.90;;;11.70;99.90;;;;;;5055494;28;20039;-70
2023/11/01 02:25:42;;;;;;;1999.90;999.90;;;11.70;99.90;;;;;;5053246;28;20029;-71
2023/11/01 02:28:09;;;;;;;1999.90;999.90;;;11.70;99.90;;;;;;5051670;28;20029;-70
2023/11/01 02:30:35;;;;;;;1999.90;999.90;;;11.70;99.90;;;;;;5054489;28;20040;-70
2023/11/01 02:33:01;;;;;;;1999.90;999.90;;;11.70;99.90;;;;;;5051264;28;20033;-70
2023/11/01 02:35:27;;;;;;;1999.90;999.90;;;11.70;99.90;;;;;;5055494;28;20084;-71
2023/11/01 02:37:52;;;;;;;1999.90;999.90;;;11.70;99.90;;;;;;5053572;28;20420;-70
2023/11/01 02:40:18;;;;;;;1999.90;999.90;;;11.70;99.90;;;;;;5052143;28;20017;-70
2023/11/01 02:42:47;;;;;;;1999.90;999.90;;;11.70;99.90;;;;;;5053290;28;20025;-72
2023/11/01 02:45:14;;;;;;;1999.90;999.90;;;11.60;99.90;;;;;;5051465;28;20044;-90
2023/11/01 02:47:40;;;;;;;;;;;11.70;99.90;;;;;;5044124;28;20037;-70
2023/11/01 02:50:09;;;;;;;1999.90;999.90;;;11.60;99.90;;;;;;5054932;28;19924;-70
2023/11/01 02:52:35;;;;;;;1999.90;999.90;;;11.60;99.90;;;;;;5048111;28;20029;-70
2023/11/01 02:55:06;;;;;;;1999.90;999.90;;;11.50;99.90;;;;;;5053705;28;20045;-70
2023/11/01 02:57:32;;;;;;;1999.90;999.90;;;11.50;99.90;;;;;;5053500;28;20017;-70
2023/11/01 03:00:06;;;;;;;1999.90;999.90;;;11.60;99.90;;;;;;5053660;28;20323;-70
2023/11/01 03:02:32;;;;;;;1999.90;999.90;;;11.50;99.90;;;;;;5051977;28;20052;-70
2023/11/01 03:04:58;;;;;;;1999.90;999.90;;;11.50;99.90;;;;;;5046993;28;20017;-70
2023/11/01 03:07:23;;;;;;;1999.90;999.90;;;11.40;99.90;;;;;;5044801;28;20116;-70
2023/11/01 03:09:49;;;;;;;1999.90;999.90;;;11.40;99.90;;;;;;5043008;28;20025;-70
2023/11/01 03:12:15;;;;;;;1999.90;999.90;;;11.50;99.90;;;;;;5053599;28;20037;-69
2023/11/01 03:14:41;;;;;;;1999.90;999.90;;;11.50;99.90;;;;;;5054611;28;20108;-70
2023/11/01 03:17:07;;;;;;;1999.90;999.90;;;11.50;99.90;;;;;;5054267;28;20025;-70
2023/11/01 03:19:33;;;;;;;1999.90;999.90;;;11.50;99.90;;;;;;5055651;28;20419;-71
2023/11/01 03:21:59;;;;;;;1999.90;999.90;;;11.50;99.90;;;;;;5043163;28;20034;-70
2023/11/01 03:24:24;;;;;;;1999.90;999.90;;;11.50;99.90;;;;;;5043332;28;20025;-70
2023/11/01 03:26:50;;;;;;;1999.90;999.90;;;11.50;99.90;;;;;;5054444;28;20074;-70
2023/11/01 03:29:16;;;;;;;1999.90;999.90;;;11.60;99.90;;;;;;5055192;28;20066;-71
2023/11/01 03:31:43;;;;;;;1999.90;999.90;;;11.60;99.90;;;;;;5054667;28;20096;-71
2023/11/01 03:34:09;;;;;;;1999.90;999.90;;;11.50;99.90;;;;;;5054450;28;20032;-70
2023/11/01 03:36:35;;;;;;;1999.90;999.90;;;11.60;99.90;;;;;;5055411;28;20328;-71
2023/11/01 03:39:00;;;;;;;1999.90;999.90;;;11.60;99.90;;;;;;5053263;28;20029;-70
2023/11/01 03:41:26;;;;;;;1999.90;999.90;;;11.60;99.90;;;;;;5042747;28;20029;-70
2023/11/01 03:43:52;;;;;;;1999.90;999.90;;;11.60;99.90;;;;;;5054374;28;20159;-70
2023/11/01 03:46:17;;;;;;;1999.90;999.90;;;11.60;99.90;;;;;;5053243;28;20018;-71
2023/11/01 03:48:43;;;;;;;1999.90;999.90;;;11.60;99.90;;;;;;5049664;28;20021;-70
2023/11/01 03:51:09;;;;;;;1999.90;999.90;;;11.60;99.90;;;;;;5053090;28;20186;-70
2023/11/01 03:53:34;;;;;;;1999.90;999.90;;;11.60;99.90;;;;;;5054084;28;20147;-70
2023/11/01 03:56:03;;;;;;;1999.90;999.90;;;11.60;99.90;;;;;;5044233;28;20112;-71
2023/11/01 03:58:29;;;;;;;1999.90;999.90;;;11.60;99.90;;;;;;5053043;28;20020;-70
2023/11/01 04:00:56;;;;;;;1999.90;999.90;;;11.60;99.90;;;;;;5048124;28;20061;-70
2023/11/01 04:03:23;;;;;;;1999.90;999.90;;;11.60;99.90;;;;;;5050280;28;20028;-91
2023/11/01 04:05:49;;;;;;;1999.90;999.90;;;11.60;99.90;;;;;;5054150;28;20022;-70
2023/11/01 04:08:15;;;;;;;1999.90;999.90;;;11.60;99.90;;;;;;5045488;28;20467;-70
2023/11/01 04:10:40;;;;;;;1999.90;999.90;;;11.60;99.90;;;;;;5053074;28;20376;-70
2023/11/01 04:13:06;;;;;;;1999.90;999.90;;;11.60;99.90;;;;;;5045859;28;20020;-71
2023/11/01 04:15:32;;;;;;;1999.90;999.90;;;11.50;99.90;;;;;;5053056;28;20147;-70
2023/11/01 04:17:58;;;;;;;1999.90;999.90;;;11.60;99.90;;;;;;5054716;28;20087;-70
2023/11/01 04:20:24;;;;;;;1999.90;999.90;;;11.50;99.90;;;;;;5048784;28;20051;-92
2023/11/01 04:22:50;;;;;;;1999.90;999.90;;;11.60;99.90;;;;;;5053678;28;20423;-70
2023/11/01 04:25:15;;;;;;;1999.90;999.90;;;11.60;99.90;;;;;;5051098;28;20090;-73
2023/11/01 04:27:41;;;;;;;1999.90;999.90;;;11.70;99.90;;;;;;5049318;28;20278;-70
2023/11/01 04:30:08;;;;;;;1999.90;999.90;;;11.70;99.90;;;;;;5053654;28;20021;-71
2023/11/01 04:32:35;;;;;;;1999.90;999.90;;;11.70;99.90;;;;;;5053244;28;20078;-71
2023/11/01 04:35:00;;;;;;;;;;;11.70;99.90;;;;;;5054898;28;20060;-70
2023/11/01 04:37:26;;;;;;;1999.90;999.90;;;11.70;99.90;;;;;;5047640;28;19948;-70
2023/11/01 04:39:52;;;;;;;1999.90;999.90;;;11.70;99.90;;;;;;5046308;28;20320;-71
2023/11/01 04:42:18;;;;;;;1999.90;999.90;;;11.60;99.90;;;;;;5053619;28;20488;-70
2023/11/01 04:44:44;;;;;;;1999.90;999.90;;;11.60;99.90;;;;;;5053175;28;20035;-70
2023/11/01 04:47:10;;;;;;;1999.90;999.90;;;11.60;99.90;;;;;;5049400;28;20306;-88
2023/11/01 04:49:37;;;;;;;1999.90;999.90;;;11.60;99.90;;;;;;5052365;28;20076;-71
2023/11/01 04:52:03;;;;;;;1999.90;999.90;;;11.70;99.90;;;;;;5053903;28;20021;-71
2023/11/01 04:54:29;;;;;;;1999.90;999.90;;;11.70;99.90;;;;;;5053791;28;20096;-70
2023/11/01 04:56:55;;;;;;;1999.90;999.90;;;11.70;99.90;;;;;;5049372;28;20041;-75
2023/11/01 04:59:22;;;;;;;1999.90;999.90;;;11.70;99.90;;;;;;5047805;28;20033;-70
2023/11/01 05:01:47;;;;;;;1999.90;999.90;;;11.70;99.90;;;;;;5054071;28;20044;-71
2023/11/01 05:04:13;;;;;;;1999.90;999.90;;;11.70;99.90;;;;;;5051828;28;20037;-70
2023/11/01 05:06:39;;;;;;;1999.90;999.90;;;11.70;99.90;;;;;;5043289;28;20040;-71
2023/11/01 05:09:05;;;;;;;1999.90;999.90;;;11.80;99.90;;;;;;5053052;28;20459;-70
2023/11/01 05:11:31;;;;;;;1999.90;999.90;;;11.80;99.90;;;;;;5052985;28;20020;-71
2023/11/01 05:13:57;;;;;;;1999.90;999.90;;;11.80;99.90;;;;;;5043710;28;20113;-71
2023/11/01 05:16:23;;;;;;;1999.90;999.90;;;11.80;99.90;;;;;;5046704;28;20033;-71
2023/11/01 05:18:49;;;;;;;1999.90;999.90;;;11.80;99.90;;;;;;5047016;28;20108;-70
2023/11/01 05:21:15;;;;;;;1999.90;999.90;;;11.90;99.90;;;;;;5039702;28;20029;-70
2023/11/01 05:23:41;;;;;;;1999.90;999.90;;;11.90;99.90;;;;;;5046074;28;20063;-70
2023/11/01 05:26:14;;;;;;;1999.90;999.90;;;11.90;99.90;;;;;;5050330;28;20029;-70
2023/11/01 05:28:40;;;;;;;1999.90;999.90;;;11.90;99.90;;;;;;5043421;28;20033;-70
2023/11/01 05:31:06;;;;;;;1999.90;999.90;;;12.00;99.90;;;;;;5041802;28;20017;-72
2023/11/01 05:33:31;;;;;;;1999.90;999.90;;;12.00;99.90;;;;;;5045081;28;20064;-71
2023/11/01 05:35:57;;;;;;;1999.90;999.90;;;12.00;99.90;;;;;;5045469;28;20053;-71
2023/11/01 05:38:26;;;;;;;1999.90;999.90;;;12.00;99.90;;;;;;5048075;28;20097;-71
2023/11/01 05:40:52;;;;;;;1999.90;999.90;;;12.00;99.90;;;;;;5044172;28;20068;-71
2023/11/01 05:43:18;;;;;;;1999.90;999.90;;;12.00;99.90;;;;;;5038626;28;20045;-71
2023/11/01 05:45:43;;;;;;;1999.90;999.90;;;12.10;99.90;;;;;;5049463;28;20075;-70
2023/11/01 05:48:09;;;;;;;1999.90;999.90;;;12.10;99.90;;;;;;5037153;28;20017;-71
2023/11/01 05:50:36;;;;;;;1999.90;999.90;;;12.10;99.90;;;;;;5053135;28;20048;-71
2023/11/01 05:53:09;;;;;;;;;;;12.10;99.90;;;;;;5049388;28;20028;-70
2023/11/01 05:55:36;;;;;;;1999.90;999.90;;;12.10;99.90;;;;;;5049968;28;19920;-89
2023/11/01 05:58:02;;;;;;;1999.90;999.90;;;12.10;99.90;;;;;;5045817;28;20034;-71
2023/11/01 06:00:28;;;;;;;1999.90;999.90;;;12.20;99.90;;;;;;5040622;28;20035;-70
2023/11/01 06:02:53;;;;;;;1999.90;999.90;;;12.20;99.90;;;;;;5048278;28;20029;-70
2023/11/01 06:05:22;;;;;;;1999.90;999.90;;;12.20;99.90;;;;;;5033971;28;20022;-71
2023/11/01 06:07:48;;;;;;;1999.90;999.90;;;12.20;99.90;;;;;;5047398;28;20056;-71
2023/11/01 06:10:13;;;;;;;1999.90;999.90;;;12.20;99.90;;;;;;5032294;28;20021;-92
2023/11/01 06:12:39;;;;;;;1999.90;999.90;;;12.20;99.90;;;;;;5032830;28;20034;-90
2023/11/01 06:15:05;;;;;;;1999.90;999.90;;;12.30;99.90;;;;;;5039571;28;20021;-70
2023/11/01 06:17:31;;;;;;;1999.90;999.90;;;12.30;99.90;;;;;;5040606;28;20083;-70
2023/11/01 06:19:56;;;;;;;1999.90;999.90;;;12.40;99.90;;;;;;5039572;28;20096;-70
2023/11/01 06:22:22;;;;;;;1999.90;999.90;;;12.40;99.90;;;;;;5040597;28;20025;-71
2023/11/01 06:24:48;;;;;;;1999.90;999.90;;;12.40;99.90;;;;;;5046628;28;20029;-70
2023/11/01 06:27:13;;;;;;;1999.90;999.90;;;12.50;99.90;;;;;;5053955;28;20056;-70
2023/11/01 06:29:42;;;;;;;1999.90;999.90;;;12.50;99.90;;;;;;5056622;28;20036;-70
2023/11/01 06:32:09;;;;;;;1999.90;999.90;;;12.50;99.90;;;;;;5056176;28;20052;-71
2023/11/01 06:34:34;;;;;;;1999.90;999.90;;;12.50;99.90;;;;;;5055361;28;20032;-70
2023/11/01 06:37:00;;;;;;;1999.90;999.90;;;12.50;99.90;;;;;;5054900;28;20025;-71
2023/11/01 06:39:26;;;;;;;1999.90;999.90;;;12.60;99.90;;;;;;5053998;28;20043;-72
2023/11/01 06:41:51;;;;;;;1999.90;999.90;;;12.60;99.90;;;;;;5052899;28;20091;-71
2023/11/01 06:44:17;;;;;;;1999.90;999.90;;;12.60;99.90;;;;;;5041022;28;20017;-71
2023/11/01 06:46:43;;;;;;;1999.90;999.90;;;12.60;99.90;;;;;;5035979;28;20025;-71
2023/11/01 06:49:08;;;;;;;1999.90;999.90;;;12.60;99.90;;;;;;5036309;28;20057;-70
2023/11/01 06:51:34;;;;;;;1999.90;999.90;;;12.70;99.90;;;;;;5042117;28;20040;-71
2023/11/01 06:54:00;;;;;;;1999.90;999.90;;;12.70;99.90;;;;;;5044096;28;20467;-70
2023/11/01 06:56:25;;;;;;;1999.90;999.90;;;12.70;99.90;;;;;;5040231;28;20025;-89
2023/11/01 06:58:51;;;;;;;1999.90;999.90;;;12.70;99.90;;;;;;5039679;28;20092;-71
2023/11/01 07:01:17;;;;;;;1999.90;999.90;;;12.70;99.90;;;;;;5038968;28;20044;-70
2023/11/01 07:03:43;;;;;;;1999.90;999.90;;;12.70;99.90;;;;;;5043582;28;20420;-70
2023/11/01 07:06:09;;;;;;;1999.90;999.90;;;12.80;99.90;;;;;;5052511;28;20029;-71
2023/11/01 07:08:35;;;;;;;1999.90;999.90;;;12.80;99.90;;;;;;5050247;28;20109;-71
2023/11/01 07:11:00;;;;;;;1999.90;999.90;;;12.80;99.90;;;;;;5049868;28;20107;-70
2023/11/01 07:13:26;;;;;;;1999.90;999.90;;;12.80;99.90;;;;;;5047261;28;20029;-70
2023/11/01 07:15:52;;;;;;;1999.90;999.90;;;12.80;99.90;;;;;;5052814;28;20024;-70
2023/11/01 07:18:17;;;;;;;1999.90;999.90;;;12.80;99.90;;;;;;5052193;28;20032;-70
2023/11/01 07:20:43;;;;;;;1999.90;999.90;;;12.80;99.90;;;;;;5052208;28;20115;-71
2023/11/01 07:23:09;;;;;;;1999.90;999.90;;;12.80;99.90;;;;;;5049419;28;20037;-86
2023/11/01 07:25:34;;;;;;;1999.90;999.90;;;12.80;99.90;;;;;;5040820;28;20040;-88
2023/11/01 07:28:00;;;;;;;1999.90;999.90;;;12.80;99.90;;;;;;5049197;28;20096;-71
2023/11/01 07:30:26;;;;;;;1999.90;999.90;;;12.80;99.90;;;;;;5046714;28;20374;-70
2023/11/01 07:32:52;;;;;;;1999.90;999.90;;;12.80;99.90;;;;;;5052070;28;20021;-71
2023/11/01 07:35:18;;;;;;;1999.90;999.90;;;12.80;99.90;;;;;;5041846;28;20025;-71
2023/11/01 07:37:44;;;;;;;1999.90;999.90;;;12.80;99.90;;;;;;5044710;28;20094;-72
2023/11/01 07:40:10;;;;;;;1999.90;999.90;;;12.80;99.90;;;;;;5038099;28;20022;-84
2023/11/01 07:42:38;;;;;;;1999.90;999.90;;;12.80;99.90;;;;;;5044850;28;20048;-71
2023/11/01 07:45:08;;;;;;;1999.90;999.90;;;12.90;99.90;;;;;;5040203;28;20052;-71
2023/11/01 07:47:35;;;;;;;1999.90;999.90;;;12.90;99.90;;;;;;5046238;28;20017;-71
2023/11/01 07:50:04;;;;;;;1999.90;999.90;;;12.90;99.90;;;;;;5039394;28;20041;-71
2023/11/01 07:52:29;;;;;;;1999.90;999.90;;;12.90;99.90;;;;;;5043317;28;20030;-71
2023/11/01 07:54:55;;;;;;;1999.90;999.90;;;12.90;99.90;;;;;;5047550;28;20036;-71
2023/11/01 07:57:22;;;;;;;1999.90;999.90;;;13.00;99.90;;;;;;5035558;28;20431;-70
2023/11/01 07:59:48;;;;;;;1999.90;999.90;;;13.00;99.90;;;;;;5043014;28;20029;-71
2023/11/01 08:02:14;;;;;;;1999.90;999.90;;;13.00;99.90;;;;;;5052890;28;20029;-71
2023/11/01 08:04:40;;;;;;;1999.90;999.90;;;13.00;99.90;;;;;;5046647;28;20144;-70
2023/11/01 08:07:05;;;;;;;1999.90;999.90;;;13.00;99.90;;;;;;5049631;28;20464;-71
2023/11/01 08:09:31;;;;;;;1999.90;999.90;;;13.00;99.90;;;;;;5050149;28;20362;-70
2023/11/01 08:11:57;;;;;;;1999.90;999.90;;;13.00;99.90;;;;;;5070790;28;20017;-70
2023/11/01 08:14:23;;;;;;;1999.90;999.90;;;13.00;99.90;;;;;;5062161;28;20126;-87
2023/11/01 08:16:49;;;;;;;1999.90;999.90;;;13.00;99.90;;;;;;5045730;28;20041;-70
2023/11/01 08:19:15;;;;;;;1999.90;999.90;;;13.10;99.90;;;;;;5043917;28;20043;-70
2023/11/01 08:21:42;;;;;;;1999.90;999.90;;;13.10;99.90;;;;;;5045577;28;20071;-70
2023/11/01 08:24:08;;;;;;;1999.90;999.90;;;13.00;99.90;;;;;;5052972;28;20120;-71
2023/11/01 08:26:33;;;;;;;1999.90;999.90;;;13.10;99.90;;;;;;5063607;28;20358;-71
2023/11/01 08:28:59;;;;;;;1999.90;999.90;;;13.10;99.90;;;;;;5055718;28;20109;-70
2023/11/01 08:31:25;;;;;;;1999.90;999.90;;;13.10;99.90;;;;;;5045605;28;20041;-89
2023/11/01 08:33:50;;;;;;;1999.90;999.90;;;13.10;99.90;;;;;;5041925;28;20016;-70
2023/11/01 08:36:16;;;;;;;1999.90;999.90;;;13.10;99.90;;;;;;5049010;28;20304;-70
2023/11/01 08:38:42;;;;;;;1999.90;999.90;;;13.10;99.90;;;;;;5047144;28;20083;-70
2023/11/01 08:41:09;;;;;;;1999.90;999.90;;;13.10;99.90;;;;;;5048421;28;20451;-71
2023/11/01 08:43:36;;;;;;;1999.90;999.90;;;13.20;99.90;;;;;;5051846;28;20329;-70
2023/11/01 08:46:02;;;;;;;1999.90;999.90;;;13.20;99.90;;;;;;5035300;28;20123;-70
2023/11/01 08:48:28;;;;;;;1999.90;999.90;;;13.20;99.90;;;;;;5050694;28;20009;-84
2023/11/01 08:50:53;;;;;;;1999.90;999.90;;;13.20;99.90;;;;;;5058527;28;20329;-71
2023/11/01 08:53:19;;;;;;;1999.90;999.90;;;13.20;99.90;;;;;;5043158;28;20063;-70
2023/11/01 08:55:45;;;;;;;1999.90;999.90;;;13.20;99.90;;;;;;5047482;28;20506;-70
2023/11/01 08:58:10;;;;;;;1999.90;999.90;;;13.20;99.90;;;;;;5038160;28;20017;-70
2023/11/01 09:00:36;;;;;;;1999.90;999.90;;;13.20;99.90;;;;;;5046284;28;20031;-70
2023/11/01 09:03:01;;;;;;;1999.90;999.90;;;13.20;99.90;;;;;;5043170;28;20096;-70
2023/11/01 09:05:27;;;;;;;1999.90;999.90;;;13.30;99.90;;;;;;5036261;28;20026;-70
2023/11/01 09:07:53;;;;;;;1999.90;999.90;;;13.30;99.90;;;;;;5049914;28;20025;-70
2023/11/01 09:10:18;;;;;;;1999.90;999.90;;;13.30;99.90;;;;;;5046878;28;20040;-71
2023/11/01 09:12:44;;;;;;;1999.90;999.90;;;13.40;99.90;;;;;;5033955;28;20029;-71
2023/11/01 09:15:10;;;;;;;1999.90;999.90;;;13.50;99.90;;;;;;5039754;28;20035;-81
2023/11/01 09:17:36;;;;;;;1999.90;999.90;;;13.60;99.90;;;;;;5036882;28;20033;-72
2023/11/01 09:20:01;;;;;;;1999.90;999.90;;;13.60;99.90;;;;;;5036090;28;20021;-70
2023/11/01 09:22:29;;;;;;;1999.90;999.90;;;13.60;99.90;;;;;;5035187;28;20025;-70
2023/11/01 09:24:55;;;;;;;1999.90;999.90;;;13.70;99.90;;;;;;5037641;28;20129;-70
2023/11/01 09:27:21;;;;;;;1999.90;999.90;;;13.70;99.90;;;;;;5035468;28;20079;-70
2023/11/01 09:29:46;;;;;;;1999.90;999.90;;;13.70;99.90;;;;;;5041320;28;20033;-70
2023/11/01 09:32:12;;;;;;;1999.90;999.90;;;13.70;99.90;;;;;;5047002;28;20025;-70
2023/11/01 09:34:38;;;;;;;1999.90;999.90;;;13.60;99.90;;;;;;5041573;28;20056;-70
2023/11/01 09:37:04;;;;;;;1999.90;999.90;;;13.70;99.90;;;;;;5045991;28;20037;-70
2023/11/01 09:39:30;;;;;;;1999.90;999.90;;;13.70;99.90;;;;;;5048775;28;20371;-71
2023/11/01 09:42:23;;;;;;;1999.90;999.90;;;13.70;99.90;;;;;;5044825;28;20442;-71
2023/11/01 09:44:55;;;;;;;1999.90;999.90;;;13.80;99.90;;;;;;5045731;28;20037;-71
2023/11/01 09:47:25;;;;;;;1999.90;999.90;;;13.80;99.90;;;;;;5047297;28;20060;-70
2023/11/01 09:49:51;;;;;;;1999.90;999.90;;;13.80;99.90;;;;;;5045018;28;20068;-70
2023/11/01 09:52:18;;;;;;;1999.90;999.90;;;13.80;99.90;;;;;;5037502;28;20021;-70
2023/11/01 09:54:43;;;;;;;1999.90;999.90;;;13.80;99.90;;;;;;5042700;28;20060;-70
2023/11/01 09:57:14;;;;;;;1999.90;999.90;;;13.90;99.90;;;;;;5054818;28;20491;-70
2023/11/01 09:59:40;;;;;;;1999.90;999.90;;;13.90;99.90;;;;;;5046998;28;20741;-70
2023/11/01 10:02:09;;;;;;;1999.90;999.90;;;13.90;99.90;;;;;;5041142;28;20045;-74
2023/11/01 10:04:35;;;;;;;1999.90;999.90;;;13.90;99.90;;;;;;5045755;28;20099;-70
2023/11/01 10:07:01;;;;;;;1999.90;999.90;;;13.90;99.90;;;;;;5038391;28;20361;-85
2023/11/01 10:09:29;;;;;;;1999.90;999.90;;;13.90;99.90;;;;;;5049993;28;20320;-70
2023/11/01 10:11:57;;;;;;;1999.90;999.90;;;14.00;99.90;;;;;;5037266;28;20033;-70
2023/11/01 10:14:30;;;;;;;1999.90;999.90;;;14.00;99.90;;;;;;5049723;28;20087;-70
2023/11/01 10:16:58;;;;;;;1999.90;999.90;;;14.00;99.90;;;;;;5046292;28;20037;-70
2023/11/01 10:19:27;;;;;;;1999.90;999.90;;;14.00;99.90;;;;;;5046512;28;20451;-70
2023/11/01 10:21:54;;;;;;;1999.90;999.90;;;14.00;99.90;;;;;;5036859;28;20302;-70
2023/11/01 10:24:25;;;;;;;1999.90;999.90;;;14.10;99.90;;;;;;5039771;28;20040;-70
2023/11/01 10:26:57;;;;;;;1999.90;999.90;;;14.10;99.90;;;;;;5052213;28;20038;-71
2023/11/01 10:29:24;;;;;;;1999.90;999.90;;;14.10;99.90;;;;;;5055982;28;20427;-71
2023/11/01 10:31:58;;;;;;;1999.90;999.90;;;14.10;99.90;;;;;;5050521;28;20041;-70
2023/11/01 10:34:28;;;;;;;1999.90;999.90;;;14.20;99.90;;;;;;5054233;28;20070;-70
2023/11/01 10:36:55;;;;;;;1999.90;999.90;;;14.30;99.90;;;;;;5047571;28;20029;-70
2023/11/01 10:39:21;;;;;;;1999.90;999.90;;;14.30;99.90;;;;;;5048722;28;20100;-70
2023/11/01 10:41:52;;;;;;;1999.90;999.90;;;14.30;99.90;;;;;;5047020;28;20032;-70
2023/11/01 10:44:20;;;;;;;1999.90;999.90;;;14.30;99.90;;;;;;5048662;28;20029;-70
2023/11/01 10:46:47;;;;;;;1999.90;999.90;;;14.30;99.90;;;;;;5046687;28;20033;-71
2023/11/01 10:49:13;;;;;;;1999.90;999.90;;;14.30;99.90;;;;;;5047283;28;20100;-71
2023/11/01 10:51:40;;;;;;;1999.90;999.90;;;14.30;99.90;;;;;;5046327;28;20110;-70
2023/11/01 10:54:07;;;;;;;1999.90;999.90;;;14.30;99.90;;;;;;5042412;28;20092;-70
2023/11/01 10:56:33;;;;;;;1999.90;999.90;;;14.30;99.90;;;;;;5041695;28;20604;-84
2023/11/01 10:59:24;;;;;;;1999.90;999.90;;;14.30;99.90;;;;;;5057533;28;20040;-70
2023/11/01 11:02:00;;;;;;;1999.90;999.90;;;14.20;99.90;;;;;;5042421;28;20038;-84
2023/11/01 11:04:54;;;;;;;1999.90;999.90;;;14.20;99.90;;;;;;5038035;28;20070;-71
2023/11/01 11:07:45;;;;;;;1999.90;999.90;;;14.20;99.90;;;;;;5039746;28;20036;-70
2023/11/01 11:10:32;;;;;;;1999.90;999.90;;;14.20;99.90;;;;;;5053599;28;20311;-85
2023/11/01 11:13:16;;;;;;;1999.90;999.90;;;14.20;99.90;;;;;;5035916;28;20041;-70
2023/11/01 11:15:48;;;;;;;1999.90;999.90;;;14.20;99.90;;;;;;5034829;28;20026;-81
2023/11/01 11:18:21;;;;;;;1999.90;999.90;;;14.20;99.90;;;;;;5048285;28;20574;-70
2023/11/01 11:20:51;;;;;;;1999.90;999.90;;;14.20;99.90;;;;;;5045007;28;20036;-69
2023/11/01 11:23:21;;;;;;;1999.90;999.90;;;14.20;99.90;;;;;;5051333;28;20025;-70
2023/11/01 11:25:51;;;;;;;1999.90;999.90;;;14.20;99.90;;;;;;5048491;28;20033;-70
2023/11/01 11:28:26;;;;;;;1999.90;999.90;;;14.20;99.90;;;;;;5048423;28;20024;-70
2023/11/01 11:31:07;;;;;;;1999.90;999.90;;;14.20;99.90;;;;;;5041572;28;20052;-70
2023/11/01 11:33:52;;;;;;;1999.90;999.90;;;14.20;99.90;;;;;;5046399;28;20416;-71
2023/11/01 11:36:26;;;;;;;1999.90;999.90;;;14.30;99.90;;;;;;5035983;28;20065;-71
2023/11/01 11:38:57;;;;;;;1999.90;999.90;;;14.30;99.90;;;;;;5042916;28;20064;-70
2023/11/01 11:41:38;;;;;;;1999.90;999.90;;;14.20;99.90;;;;;;5043013;28;20051;-70
2023/11/01 11:44:06;;;;;;;1999.90;999.90;;;14.20;99.90;;;;;;5044761;28;20025;-70
2023/11/01 11:46:49;;;;;;;1999.90;999.90;;;14.20;99.90;;;;;;5042678;28;20423;-70
2023/11/01 11:49:27;;;;;;;1999.90;999.90;;;14.20;99.90;;;;;;5041590;28;20028;-70
2023/11/01 11:51:57;;;;;;;1999.90;999.90;;;14.30;99.90;;;;;;5042260;28;20364;-69
2023/11/01 11:54:24;;;;;;;1999.90;999.90;;;14.30;99.90;;;;;;5043569;28;20025;-70
2023/11/01 11:56:54;;;;;;;1999.90;999.90;;;14.40;99.90;;;;;;5045982;28;20491;-70
2023/11/01 11:59:21;;;;;;;1999.90;999.90;;;14.40;99.90;;;;;;5043853;28;20040;-70
2023/11/01 12:01:48;;;;;;;1999.90;999.90;;;14.50;99.90;;;;;;5044615;28;20043;-71